Time;durP1;ratioP1;P1;durP2;ratioP2;P2;SDS_P1;SDS_P2;PMS_P1;PMS_P2;Temp;Humidity;BMP_temperature;BMP_pressure;BME280_temperature;BME280_humidity;BME280_pressure;Samples;Min_cycle;Max_cycle;Signal;HPM_P1;HPM_P2
2022/04/23 00:01:21;;;;;;;38.72;28.40;;;10.70;99.90;;;;;;5027780;28;20045;-65
2022/04/23 00:03:47;;;;;;;38.08;28.50;;;10.70;99.90;;;;;;5026889;28;20379;-65
2022/04/23 00:06:13;;;;;;;40.95;26.80;;;10.70;99.90;;;;;;5027052;28;20611;-66
2022/04/23 00:08:39;;;;;;;46.97;30.52;;;10.70;99.90;;;;;;5024158;28;20119;-65
2022/04/23 00:11:04;;;;;;;35.00;26.63;;;10.70;99.90;;;;;;5026231;28;20111;-65
2022/04/23 00:13:30;;;;;;;35.70;26.05;;;10.60;99.90;;;;;;5025872;28;20045;-65
2022/04/23 00:15:56;;;;;;;35.95;26.98;;;10.60;99.90;;;;;;5025808;28;20132;-65
2022/04/23 00:18:21;;;;;;;39.53;28.13;;;10.60;99.90;;;;;;5025229;28;20065;-66
2022/04/23 00:20:47;;;;;;;44.60;29.52;;;10.60;99.90;;;;;;5028607;28;20128;-66
2022/04/23 00:23:13;;;;;;;37.42;28.02;;;10.50;99.90;;;;;;5023672;28;20071;-65
2022/04/23 00:25:40;;;;;;;44.45;30.48;;;10.60;99.90;;;;;;5025124;28;20041;-65
2022/04/23 00:28:06;;;;;;;41.67;29.58;;;10.50;99.90;;;;;;5023297;28;20037;-65
2022/04/23 00:30:33;;;;;;;43.15;29.35;;;10.40;99.90;;;;;;5025785;28;20162;-66
2022/04/23 00:33:00;;;;;;;33.90;27.55;;;10.40;99.90;;;;;;5027682;28;20048;-65
2022/04/23 00:35:26;;;;;;;40.38;26.45;;;10.40;99.90;;;;;;5025670;28;20037;-65
2022/04/23 00:37:52;;;;;;;37.65;28.10;;;10.40;99.90;;;;;;5026709;28;20048;-65
2022/04/23 00:40:21;;;;;;;37.97;27.38;;;10.40;99.90;;;;;;5027004;28;20544;-65
2022/04/23 00:42:52;;;;;;;35.88;26.90;;;10.40;99.90;;;;;;5026938;28;20049;-66
2022/04/23 00:45:28;;;;;;;38.88;27.38;;;10.30;99.90;;;;;;5026747;28;20045;-65
2022/04/23 00:47:54;;;;;;;35.95;24.90;;;10.30;99.90;;;;;;5025506;28;20050;-65
2022/04/23 00:50:21;;;;;;;39.15;26.55;;;10.30;99.90;;;;;;5025741;28;20052;-65
2022/04/23 00:52:49;;;;;;;35.58;25.77;;;10.30;99.90;;;;;;5024899;28;20042;-66
2022/04/23 00:55:15;;;;;;;30.73;23.83;;;10.30;99.90;;;;;;5032874;28;20579;-66
2022/04/23 00:57:41;;;;;;;36.88;24.45;;;10.30;99.90;;;;;;5026670;28;20564;-66
2022/04/23 01:00:08;;;;;;;35.25;24.20;;;10.20;99.90;;;;;;5033257;28;20474;-65
2022/04/23 01:02:35;;;;;;;34.15;25.33;;;10.20;99.90;;;;;;5026650;28;20461;-65
2022/04/23 01:05:02;;;;;;;31.65;22.85;;;10.20;99.90;;;;;;5024550;28;20132;-66
2022/04/23 01:07:28;;;;;;;30.77;24.15;;;10.10;99.90;;;;;;5025664;28;20501;-66
2022/04/23 01:09:54;;;;;;;33.95;22.70;;;10.20;99.90;;;;;;5024953;28;20851;-66
2022/04/23 01:12:19;;;;;;;32.85;23.33;;;10.20;99.90;;;;;;5026195;28;20044;-66
2022/04/23 01:15:04;;;;;;;29.25;23.13;;;10.10;99.90;;;;;;5030054;28;20108;-66
2022/04/23 01:17:30;;;;;;;35.35;24.25;;;10.10;99.90;;;;;;5029323;28;20121;-66
2022/04/23 01:19:56;;;;;;;29.95;23.05;;;10.10;99.90;;;;;;5027825;28;20037;-66
2022/04/23 01:22:24;;;;;;;32.05;23.63;;;10.10;99.90;;;;;;5028672;28;20099;-66
2022/04/23 01:24:54;;;;;;;31.27;22.93;;;10.10;99.90;;;;;;5030817;28;20043;-66
2022/04/23 01:27:24;;;;;;;33.35;23.98;;;10.00;99.90;;;;;;5028170;28;20410;-66
2022/04/23 01:29:50;;;;;;;33.85;23.38;;;10.00;99.90;;;;;;5030372;28;20048;-66
2022/04/23 01:32:15;;;;;;;30.58;23.15;;;10.00;99.90;;;;;;5029906;28;20037;-66
2022/04/23 01:34:41;;;;;;;33.67;25.67;;;10.00;99.90;;;;;;5028877;28;20045;-65
2022/04/23 01:37:07;;;;;;;45.47;27.63;;;10.00;99.90;;;;;;5028425;28;20042;-66
2022/04/23 01:39:33;;;;;;;38.17;25.35;;;9.90;99.90;;;;;;5028944;28;20048;-66
2022/04/23 01:41:59;;;;;;;37.03;24.67;;;9.90;99.90;;;;;;5034147;28;20486;-66
2022/04/23 01:44:24;;;;;;;34.20;25.05;;;9.90;99.90;;;;;;5028385;28;20054;-65
2022/04/23 01:46:50;;;;;;;31.90;24.90;;;9.90;99.90;;;;;;5029581;28;20383;-65
2022/04/23 01:49:16;;;;;;;36.13;24.67;;;9.80;99.90;;;;;;5030358;28;20379;-66
2022/04/23 01:51:41;;;;;;;37.63;26.55;;;9.80;99.90;;;;;;5026778;28;20038;-65
2022/04/23 01:54:07;;;;;;;33.55;24.55;;;9.80;99.90;;;;;;5028977;28;20045;-65
2022/04/23 01:56:32;;;;;;;35.63;25.55;;;9.70;99.90;;;;;;5029122;28;20498;-66
2022/04/23 01:58:58;;;;;;;31.02;25.05;;;9.70;99.90;;;;;;5029072;28;20045;-65
2022/04/23 02:01:24;;;;;;;39.00;25.70;;;9.70;99.90;;;;;;5029078;28;20486;-66
2022/04/23 02:03:51;;;;;;;40.40;25.27;;;9.60;99.90;;;;;;5036505;28;20048;-65
2022/04/23 02:06:17;;;;;;;33.35;26.50;;;9.60;99.90;;;;;;5029908;28;20038;-66
2022/04/23 02:08:43;;;;;;;32.35;25.40;;;9.60;99.90;;;;;;5031568;28;20106;-66
2022/04/23 02:11:09;;;;;;;36.92;26.90;;;9.50;99.90;;;;;;5031282;28;20042;-66
2022/04/23 02:13:35;;;;;;;36.22;26.30;;;9.50;99.90;;;;;;5025743;28;20033;-66
2022/04/23 02:16:04;;;;;;;40.10;27.10;;;9.50;99.90;;;;;;5029382;28;20095;-66
2022/04/23 02:18:31;;;;;;;36.20;26.83;;;9.50;99.90;;;;;;5027659;28;20044;-66
2022/04/23 02:20:57;;;;;;;36.63;26.35;;;9.40;99.90;;;;;;5022774;28;20045;-66
2022/04/23 02:23:23;;;;;;;37.97;27.27;;;9.40;99.90;;;;;;5025700;28;20049;-66
2022/04/23 02:25:49;;;;;;;33.20;26.17;;;9.40;99.90;;;;;;5028392;28;20516;-66
2022/04/23 02:28:14;;;;;;;34.42;26.40;;;9.30;99.90;;;;;;5027344;28;20077;-65
2022/04/23 02:30:40;;;;;;;32.03;25.23;;;9.30;99.90;;;;;;5029631;28;20156;-66
2022/04/23 02:33:06;;;;;;;41.92;27.63;;;9.30;99.90;;;;;;5026459;28;20056;-66
2022/04/23 02:35:34;;;;;;;43.53;28.95;;;9.30;99.90;;;;;;5022515;28;20136;-65
2022/04/23 02:38:02;;;;;;;35.78;28.23;;;9.20;99.90;;;;;;5033848;28;20037;-66
2022/04/23 02:40:28;;;;;;;40.40;28.20;;;9.20;99.90;;;;;;5039329;28;20046;-65
2022/04/23 02:42:55;;;;;;;36.97;27.58;;;9.20;99.90;;;;;;5027158;28;20430;-66
2022/04/23 02:45:20;;;;;;;34.45;26.38;;;9.20;99.90;;;;;;5027793;28;20893;-66
2022/04/23 02:47:52;;;;;;;33.13;27.02;;;9.10;99.90;;;;;;5024210;28;20049;-65
2022/04/23 02:50:37;;;;;;;40.70;28.90;;;9.10;99.90;;;;;;5010121;28;20506;-66
2022/04/23 02:53:04;;;;;;;37.97;28.10;;;9.10;99.90;;;;;;5023585;28;20049;-66
2022/04/23 02:55:34;;;;;;;48.47;27.73;;;9.10;99.90;;;;;;5029020;28;20048;-66
2022/04/23 02:58:12;;;;;;;38.30;27.98;;;9.00;99.90;;;;;;5027933;28;20156;-66
2022/04/23 03:00:41;;;;;;;42.30;28.88;;;9.00;99.90;;;;;;5015599;28;20498;-66
2022/04/23 03:03:09;;;;;;;37.88;26.67;;;9.00;99.90;;;;;;5023644;28;20447;-66
2022/04/23 03:05:35;;;;;;;32.33;25.48;;;9.00;99.90;;;;;;5028686;28;20053;-66
2022/04/23 03:08:02;;;;;;;38.28;27.08;;;9.00;99.90;;;;;;5024846;28;20103;-66
2022/04/23 03:10:29;;;;;;;38.70;29.27;;;9.00;99.90;;;;;;5038473;28;20418;-66
2022/04/23 03:12:56;;;;;;;34.25;26.35;;;9.00;99.90;;;;;;5027277;28;20045;-66
2022/04/23 03:15:23;;;;;;;41.80;29.13;;;8.90;99.90;;;;;;5027418;28;20116;-67
2022/04/23 03:17:49;;;;;;;39.10;28.30;;;8.90;99.90;;;;;;5029925;28;20127;-66
2022/04/23 03:20:15;;;;;;;39.40;28.27;;;8.90;99.90;;;;;;5027938;28;20498;-66
2022/04/23 03:22:41;;;;;;;43.15;29.65;;;8.90;99.90;;;;;;5027684;28;20782;-66
2022/04/23 03:25:09;;;;;;;38.58;27.23;;;8.80;99.90;;;;;;5027734;28;20069;-66
2022/04/23 03:27:35;;;;;;;44.37;29.97;;;8.90;99.90;;;;;;5026118;28;20498;-66
2022/04/23 03:30:01;;;;;;;43.38;28.85;;;8.80;99.90;;;;;;5027686;28;20045;-65
2022/04/23 03:32:27;;;;;;;42.63;29.05;;;8.80;99.90;;;;;;5027370;28;20037;-65
2022/04/23 03:34:53;;;;;;;36.90;29.05;;;8.70;99.90;;;;;;5026980;28;20038;-66
2022/04/23 03:37:19;;;;;;;38.58;27.40;;;8.70;99.90;;;;;;5028265;28;20050;-66
2022/04/23 03:39:46;;;;;;;34.95;28.08;;;8.70;99.90;;;;;;5026820;28;20093;-66
2022/04/23 03:42:12;;;;;;;43.45;29.15;;;8.70;99.90;;;;;;5027462;28;20057;-66
2022/04/23 03:44:37;;;;;;;44.25;30.63;;;8.70;99.90;;;;;;5025058;28;20056;-65
2022/04/23 03:47:04;;;;;;;41.33;30.08;;;8.60;99.90;;;;;;5026075;28;20156;-66
2022/04/23 03:49:30;;;;;;;39.38;29.63;;;8.60;99.90;;;;;;5027324;28;20084;-66
2022/04/23 03:51:57;;;;;;;42.97;28.95;;;8.60;99.90;;;;;;5027470;28;20399;-65
2022/04/23 03:54:23;;;;;;;39.80;28.73;;;8.50;99.90;;;;;;5025771;28;20045;-66
2022/04/23 03:56:48;;;;;;;38.22;28.48;;;8.50;99.90;;;;;;5027126;28;20118;-66
2022/04/23 03:59:15;;;;;;;38.80;28.67;;;8.50;99.90;;;;;;5027565;28;20081;-66
2022/04/23 04:01:41;;;;;;;39.97;29.13;;;8.50;99.90;;;;;;5024758;28;21938;-66
2022/04/23 04:04:07;;;;;;;48.03;30.30;;;8.40;99.90;;;;;;5026541;28;20048;-66
2022/04/23 04:06:33;;;;;;;43.78;29.13;;;8.40;99.90;;;;;;5026990;28;20430;-66
2022/04/23 04:08:58;;;;;;;42.35;29.80;;;8.40;99.90;;;;;;5008301;28;20045;-66
2022/04/23 04:11:24;;;;;;;39.15;28.60;;;8.40;99.90;;;;;;5024833;28;20123;-66
2022/04/23 04:13:53;;;;;;;39.63;28.90;;;8.40;99.90;;;;;;5038880;28;20558;-65
2022/04/23 04:16:20;;;;;;;38.88;29.95;;;8.40;99.90;;;;;;5028337;28;20106;-66
2022/04/23 04:18:46;;;;;;;45.95;29.95;;;8.30;99.90;;;;;;5025841;28;20041;-65
2022/04/23 04:21:13;;;;;;;35.80;26.95;;;8.30;99.90;;;;;;5026649;28;20600;-66
2022/04/23 04:23:39;;;;;;;36.08;28.23;;;8.40;99.90;;;;;;5025625;28;20505;-66
2022/04/23 04:26:07;;;;;;;35.58;27.15;;;8.40;99.90;;;;;;5031045;28;20041;-66
2022/04/23 04:28:34;;;;;;;34.80;27.60;;;8.40;99.90;;;;;;5025225;28;20053;-66
2022/04/23 04:33:44;;;;;;;34.33;24.50;;;8.40;99.90;;;;;;5026969;28;20045;-65
2022/04/23 04:36:10;;;;;;;34.33;26.05;;;8.40;99.90;;;;;;5026729;28;20060;-65
2022/04/23 04:38:36;;;;;;;33.50;25.55;;;8.40;99.90;;;;;;5024077;28;20053;-66
2022/04/23 04:41:01;;;;;;;32.50;26.35;;;8.50;99.90;;;;;;5024734;28;20073;-66
2022/04/23 04:43:27;;;;;;;35.45;28.02;;;8.50;99.90;;;;;;5027244;28;20046;-65
2022/04/23 04:45:53;;;;;;;37.17;26.92;;;8.60;99.90;;;;;;5035069;28;20072;-66
2022/04/23 04:48:19;;;;;;;45.38;28.05;;;8.70;99.90;;;;;;5034808;28;20084;-66
2022/04/23 04:50:44;;;;;;;35.85;26.50;;;8.70;99.90;;;;;;5029368;28;20056;-66
2022/04/23 04:53:10;;;;;;;36.20;27.67;;;8.80;99.90;;;;;;5027991;28;20037;-66
2022/04/23 04:55:36;;;;;;;29.98;25.33;;;8.80;99.90;;;;;;5029451;28;20111;-66
2022/04/23 04:58:03;;;;;;;37.83;28.30;;;8.90;99.90;;;;;;5029492;28;20052;-65
2022/04/23 05:00:30;;;;;;;33.50;25.85;;;9.00;99.90;;;;;;5028397;28;20452;-66
2022/04/23 05:02:56;;;;;;;30.25;23.88;;;9.00;99.90;;;;;;5027366;28;20136;-66
2022/04/23 05:05:22;;;;;;;30.60;24.45;;;9.10;99.90;;;;;;5031575;28;20056;-66
2022/04/23 05:07:48;;;;;;;40.50;25.10;;;9.10;99.90;;;;;;5026295;28;20049;-66
2022/04/23 05:10:13;;;;;;;35.38;25.15;;;9.20;99.90;;;;;;5030286;28;20049;-66
2022/04/23 05:12:39;;;;;;;29.55;24.30;;;9.30;99.90;;;;;;5031554;28;20107;-66
2022/04/23 05:15:05;;;;;;;30.50;24.33;;;9.30;99.90;;;;;;5031596;28;20064;-66
2022/04/23 05:17:31;;;;;;;29.65;23.63;;;9.40;99.90;;;;;;5030305;28;20640;-66
2022/04/23 05:20:04;;;;;;;28.00;22.98;;;9.40;99.90;;;;;;5046520;28;20128;-65
2022/04/23 05:22:31;;;;;;;28.20;22.48;;;9.50;99.90;;;;;;5032687;28;20907;-66
2022/04/23 05:24:57;;;;;;;30.95;23.92;;;9.50;99.90;;;;;;5031219;28;20053;-66
2022/04/23 05:27:26;;;;;;;32.55;24.58;;;9.60;99.90;;;;;;5030968;28;20050;-66
2022/04/23 05:29:52;;;;;;;31.30;24.50;;;9.70;99.90;;;;;;5030910;28;20049;-65
2022/04/23 05:32:17;;;;;;;36.60;26.60;;;9.70;99.90;;;;;;5016565;28;20057;-65
2022/04/23 05:34:43;;;;;;;29.25;23.27;;;9.70;99.90;;;;;;5028107;28;20050;-65
2022/04/23 05:37:09;;;;;;;29.83;23.88;;;9.80;99.90;;;;;;5030171;28;20053;-65
2022/04/23 05:39:35;;;;;;;33.40;24.90;;;9.80;99.90;;;;;;5031251;28;20497;-65
2022/04/23 05:42:00;;;;;;;31.88;24.33;;;9.90;99.90;;;;;;5031086;28;20084;-65
2022/04/23 05:44:27;;;;;;;30.08;23.70;;;9.90;99.90;;;;;;5030586;28;20099;-65
2022/04/23 05:46:52;;;;;;;30.15;23.40;;;9.90;99.90;;;;;;5029561;28;20080;-65
2022/04/23 05:49:19;;;;;;;28.88;22.42;;;9.90;99.90;;;;;;5029289;28;20458;-65
2022/04/23 05:51:44;;;;;;;31.95;22.88;;;9.90;99.90;;;;;;5029527;28;20152;-65
2022/04/23 05:54:10;;;;;;;37.40;25.38;;;9.90;99.90;;;;;;5027616;28;20132;-65
2022/04/23 05:56:35;;;;;;;31.27;23.08;;;10.00;99.90;;;;;;5035045;28;20952;-65
2022/04/23 05:59:01;;;;;;;32.95;24.10;;;10.00;99.90;;;;;;5035381;28;20549;-65
2022/04/23 06:01:27;;;;;;;32.00;23.20;;;10.00;99.90;;;;;;5038315;28;20099;-66
2022/04/23 06:03:52;;;;;;;30.67;22.98;;;10.10;99.90;;;;;;5044531;28;20532;-66
2022/04/23 06:06:19;;;;;;;30.75;24.85;;;10.00;99.90;;;;;;5028812;28;20489;-65
2022/04/23 06:08:45;;;;;;;29.85;23.48;;;10.10;99.90;;;;;;5028599;28;20064;-66
2022/04/23 06:11:11;;;;;;;29.10;22.80;;;10.10;99.90;;;;;;5027140;28;20041;-67
2022/04/23 06:13:36;;;;;;;28.90;22.08;;;10.20;99.90;;;;;;5028995;28;20049;-67
2022/04/23 06:16:08;;;;;;;33.45;24.25;;;10.20;99.90;;;;;;5030888;28;20049;-67
2022/04/23 06:18:33;;;;;;;32.78;22.67;;;10.30;99.90;;;;;;5030008;28;20438;-66
2022/04/23 06:20:59;;;;;;;30.95;23.73;;;10.40;99.90;;;;;;5028214;28;20037;-68
2022/04/23 06:23:25;;;;;;;30.10;22.58;;;10.40;99.90;;;;;;5028700;28;20033;-67
2022/04/23 06:25:52;;;;;;;30.20;22.48;;;10.50;99.90;;;;;;5028017;28;20498;-67
2022/04/23 06:28:17;;;;;;;32.53;24.55;;;10.50;99.90;;;;;;5029949;28;20064;-67
2022/04/23 06:30:43;;;;;;;30.02;23.67;;;10.60;99.90;;;;;;5022954;28;20034;-67
2022/04/23 06:33:09;;;;;;;28.63;23.13;;;10.60;99.90;;;;;;5027430;28;20066;-67
2022/04/23 06:35:35;;;;;;;30.00;22.20;;;10.60;99.90;;;;;;5026960;28;20053;-67
2022/04/23 06:38:01;;;;;;;31.45;24.33;;;10.70;99.90;;;;;;5028592;28;20045;-66
2022/04/23 06:40:27;;;;;;;28.67;24.08;;;10.80;99.90;;;;;;5026886;28;20030;-67
2022/04/23 06:42:52;;;;;;;29.95;24.40;;;10.90;99.90;;;;;;5028474;28;20554;-66
2022/04/23 06:45:19;;;;;;;31.23;24.05;;;10.90;99.90;;;;;;5024246;28;20176;-67
2022/04/23 06:47:45;;;;;;;32.78;23.92;;;11.00;99.90;;;;;;5020509;28;20041;-67
2022/04/23 06:50:11;;;;;;;32.55;25.05;;;11.10;99.90;;;;;;5027243;28;20059;-67
2022/04/23 06:52:37;;;;;;;32.13;22.27;;;11.20;99.90;;;;;;5023862;28;20049;-67
2022/04/23 06:55:04;;;;;;;31.00;24.17;;;11.30;99.90;;;;;;5022124;28;20530;-67
2022/04/23 06:57:30;;;;;;;39.17;24.88;;;11.50;99.90;;;;;;5024212;28;20045;-67
2022/04/23 07:00:01;;;;;;;28.70;22.38;;;11.60;99.90;;;;;;5025006;28;20063;-67
2022/04/23 07:02:27;;;;;;;34.10;22.75;;;11.70;99.90;;;;;;5022797;28;20045;-64
2022/04/23 07:04:52;;;;;;;30.30;23.42;;;11.80;99.90;;;;;;5020806;28;20046;-64
2022/04/23 07:07:18;;;;;;;26.52;21.25;;;11.80;99.90;;;;;;5021428;28;20048;-64
2022/04/23 07:09:44;;;;;;;31.92;23.88;;;12.00;99.90;;;;;;5020400;28;20121;-64
2022/04/23 07:12:11;;;;;;;28.35;20.35;;;12.10;99.90;;;;;;5025151;28;20079;-65
2022/04/23 07:14:38;;;;;;;29.02;23.48;;;12.10;99.90;;;;;;5020440;28;20053;-65
2022/04/23 07:17:03;;;;;;;31.35;22.73;;;12.20;99.90;;;;;;5023622;28;20045;-64
2022/04/23 07:19:30;;;;;;;28.60;20.52;;;12.40;99.90;;;;;;5023130;28;20046;-65
2022/04/23 07:21:56;;;;;;;31.17;24.70;;;12.40;99.90;;;;;;5024616;28;20075;-64
2022/04/23 07:24:21;;;;;;;25.27;20.83;;;12.50;99.90;;;;;;5022610;28;20529;-65
2022/04/23 07:26:47;;;;;;;29.42;22.00;;;12.60;99.90;;;;;;5006565;28;20048;-65
2022/04/23 07:29:16;;;;;;;34.45;23.20;;;12.60;99.90;;;;;;5031562;28;20401;-65
2022/04/23 07:31:41;;;;;;;29.77;21.80;;;12.70;99.90;;;;;;5024568;28;20409;-65
2022/04/23 07:39:37;;;;;;;25.30;20.48;;;12.90;99.90;;;;;;5028032;28;20125;-65
2022/04/23 07:42:05;;;;;;;29.20;22.95;;;13.20;99.90;;;;;;5023316;28;20476;-65
2022/04/23 07:44:31;;;;;;;;;;;13.30;99.90;;;;;;5027724;28;20046;-65
2022/04/23 07:46:56;;;;;;;36.75;20.90;;;13.30;97.90;;;;;;5027262;28;19932;-66
2022/04/23 07:49:22;;;;;;;28.50;22.42;;;13.30;93.50;;;;;;5027044;28;20041;-66
2022/04/23 07:51:49;;;;;;;26.90;21.67;;;13.50;98.90;;;;;;5027646;28;20037;-65
2022/04/23 07:54:15;;;;;;;27.38;20.65;;;13.60;94.70;;;;;;5026215;28;20084;-66
2022/04/23 07:56:41;;;;;;;28.50;21.67;;;13.50;90.90;;;;;;5028015;28;20866;-66
2022/04/23 07:59:08;;;;;;;33.90;23.23;;;13.80;93.10;;;;;;5038298;28;20057;-66
2022/04/23 08:01:34;;;;;;;37.50;18.95;;;13.80;87.40;;;;;;5041879;28;20041;-64
2022/04/23 08:04:02;;;;;;;25.27;20.88;;;13.90;86.70;;;;;;5026519;28;20048;-64
2022/04/23 08:06:29;;;;;;;34.38;22.33;;;13.80;81.50;;;;;;5026627;28;20081;-66
2022/04/23 08:08:54;;;;;;;36.38;20.98;;;13.90;77.90;;;;;;5022232;28;20054;-65
2022/04/23 08:11:22;;;;;;;33.83;22.35;;;13.90;75.80;;;;;;5026460;28;20061;-65
2022/04/23 08:13:50;;;;;;;29.08;24.13;;;14.00;77.50;;;;;;5028362;28;20098;-65
2022/04/23 08:16:15;;;;;;;29.63;22.77;;;14.10;77.20;;;;;;5041979;28;20725;-65
2022/04/23 08:18:41;;;;;;;28.95;21.85;;;14.30;76.90;;;;;;5022733;28;20037;-65
2022/04/23 08:21:07;;;;;;;24.60;21.95;;;14.50;78.50;;;;;;5019283;28;20136;-65
2022/04/23 08:23:33;;;;;;;37.90;23.48;;;14.50;72.40;;;;;;5024675;28;20038;-66
2022/04/23 08:26:02;;;;;;;26.80;19.48;;;14.50;71.80;;;;;;5022035;28;20089;-65
2022/04/23 08:31:12;;;;;;;27.70;19.85;;;14.30;70.70;;;;;;5021509;28;20042;-65
2022/04/23 08:36:22;;;;;;;27.40;19.15;;;14.30;69.40;;;;;;5020920;28;20060;-65
2022/04/23 08:38:48;;;;;;;27.33;20.58;;;14.40;70.20;;;;;;5022998;28;20410;-65
2022/04/23 08:41:14;;;;;;;27.35;21.77;;;14.50;69.50;;;;;;5019852;28;20033;-65
2022/04/23 08:43:43;;;;;;;30.13;20.20;;;14.60;68.30;;;;;;5001130;28;20041;-64
2022/04/23 08:46:09;;;;;;;31.65;21.02;;;14.60;68.90;;;;;;5035430;28;20109;-65
2022/04/23 08:48:37;;;;;;;26.83;19.52;;;14.90;67.70;;;;;;5025539;28;20116;-65
2022/04/23 08:51:10;;;;;;;36.22;19.40;;;14.70;66.10;;;;;;5027578;28;20049;-65
2022/04/23 08:53:40;;;;;;;29.55;20.90;;;14.70;64.90;;;;;;5026851;28;20055;-65
2022/04/23 08:56:08;;;;;;;30.88;20.25;;;14.70;65.80;;;;;;5021200;28;20418;-65
2022/04/23 08:58:33;;;;;;;24.88;18.45;;;14.70;66.10;;;;;;5021854;28;20046;-65
2022/04/23 09:00:59;;;;;;;53.70;20.98;;;15.10;65.80;;;;;;5026372;28;20052;-65
2022/04/23 09:03:25;;;;;;;26.15;20.25;;;15.00;65.90;;;;;;5027125;28;20498;-65
2022/04/23 09:05:52;;;;;;;22.35;17.88;;;15.00;64.60;;;;;;5025582;28;20490;-65
2022/04/23 09:08:18;;;;;;;25.80;19.90;;;15.00;63.60;;;;;;5021244;28;20081;-65
2022/04/23 09:10:51;;;;;;;31.42;20.17;;;15.20;63.30;;;;;;5026325;28;20058;-65
2022/04/23 09:13:25;;;;;;;29.38;19.60;;;15.20;62.40;;;;;;5026299;28;20042;-65
2022/04/23 09:24:46;;;;;;;34.47;20.25;;;15.20;60.50;;;;;;5026967;28;20046;-65
2022/04/23 09:27:12;;;;;;;25.67;16.55;;;15.50;60.30;;;;;;5026201;28;20037;-64
2022/04/23 09:29:38;;;;;;;27.33;19.52;;;15.50;59.20;;;;;;5021540;28;20050;-65
2022/04/23 09:32:13;;;;;;;27.42;21.13;;;15.50;60.40;;;;;;5020900;28;20060;-65
2022/04/23 09:34:38;;;;;;;27.63;18.35;;;15.60;59.50;;;;;;5029521;28;20102;-65
2022/04/23 09:37:05;;;;;;;27.52;18.27;;;15.50;58.60;;;;;;5013392;28;20449;-65
2022/04/23 09:39:34;;;;;;;25.45;20.58;;;15.60;58.10;;;;;;5029848;28;20053;-65
2022/04/23 09:42:17;;;;;;;23.80;20.40;;;16.00;60.10;;;;;;5030195;28;20037;-65
2022/04/23 09:44:44;;;;;;;33.13;21.40;;;16.10;58.80;;;;;;5030846;28;20094;-65
2022/04/23 09:47:11;;;;;;;30.33;23.13;;;16.20;58.80;;;;;;5029200;28;20525;-66
2022/04/23 09:49:38;;;;;;;24.55;19.83;;;16.20;58.30;;;;;;5025858;28;20041;-65
2022/04/23 09:52:09;;;;;;;25.35;19.60;;;16.20;57.70;;;;;;5031062;28;20082;-65
2022/04/23 09:54:37;;;;;;;30.80;19.42;;;15.90;57.50;;;;;;5027968;28;20046;-65
2022/04/23 09:57:03;;;;;;;29.88;20.13;;;16.00;58.10;;;;;;5030709;28;20042;-65
2022/04/23 09:59:30;;;;;;;28.80;20.80;;;15.90;57.50;;;;;;5029915;28;20076;-65
2022/04/23 10:01:56;;;;;;;27.58;20.13;;;15.80;58.90;;;;;;5025894;28;20053;-66
2022/04/23 10:04:27;;;;;;;25.05;18.88;;;16.10;58.90;;;;;;5030108;28;20394;-66
2022/04/23 10:06:54;;;;;;;26.73;20.90;;;16.10;58.10;;;;;;5029647;28;20098;-65
2022/04/23 10:09:23;;;;;;;31.42;22.23;;;16.10;58.20;;;;;;5029547;28;20057;-65
2022/04/23 10:12:00;;;;;;;28.33;19.70;;;16.10;58.20;;;;;;5032874;28;20053;-65
2022/04/23 10:14:34;;;;;;;21.67;16.67;;;16.00;57.50;;;;;;5027074;28;20041;-65
2022/04/23 10:17:02;;;;;;;26.60;19.00;;;16.00;56.70;;;;;;5026567;28;20053;-65
2022/04/23 10:19:29;;;;;;;35.70;19.52;;;16.20;56.30;;;;;;5026981;28;20045;-65
2022/04/23 10:22:19;;;;;;;24.75;19.77;;;16.50;56.10;;;;;;5027773;28;20505;-65
2022/04/23 10:25:24;;;;;;;25.30;20.00;;;16.30;55.60;;;;;;5023725;28;20058;-65
2022/04/23 10:27:53;;;;;;;26.77;20.38;;;16.40;56.90;;;;;;5027592;28;20103;-65
2022/04/23 10:30:19;;;;;;;27.20;20.60;;;16.30;55.90;;;;;;5029462;28;20158;-65
2022/04/23 10:32:45;;;;;;;20.23;17.23;;;16.30;55.80;;;;;;5022599;28;20154;-65
2022/04/23 10:35:19;;;;;;;29.58;20.58;;;16.60;56.30;;;;;;5028197;28;20041;-65
2022/04/23 10:37:49;;;;;;;23.77;19.98;;;16.70;56.50;;;;;;5029294;28;20053;-65
2022/04/23 10:40:21;;;;;;;36.92;22.75;;;16.70;57.10;;;;;;5029765;28;20041;-65
2022/04/23 10:43:15;;;;;;;25.80;20.67;;;16.90;57.80;;;;;;5010154;28;20054;-65
2022/04/23 10:45:40;;;;;;;24.05;19.23;;;16.60;56.50;;;;;;5012013;28;20099;-65
2022/04/23 10:48:29;;;;;;;31.42;22.08;;;16.50;56.40;;;;;;5028064;28;20045;-65
2022/04/23 10:51:15;;;;;;;27.70;23.30;;;16.60;56.00;;;;;;5030354;28;20112;-65
2022/04/23 10:53:43;;;;;;;27.33;19.73;;;16.60;55.80;;;;;;5029423;28;20776;-65
2022/04/23 10:56:14;;;;;;;34.38;23.52;;;16.80;56.60;;;;;;5028630;28;20045;-66
2022/04/23 10:58:41;;;;;;;31.60;21.80;;;16.70;55.20;;;;;;5029067;28;20107;-65
2022/04/23 11:01:22;;;;;;;27.58;21.30;;;16.80;55.60;;;;;;5029332;28;20132;-65
2022/04/23 11:04:06;;;;;;;31.27;21.23;;;16.90;55.30;;;;;;5029761;28;20175;-65
2022/04/23 11:12:55;;;;;;;27.35;20.33;;;17.00;55.00;;;;;;5026620;28;20040;-65
2022/04/23 11:15:21;;;;;;;26.17;22.20;;;17.00;54.30;;;;;;5027442;28;20120;-65
2022/04/23 11:17:53;;;;;;;34.72;24.00;;;17.00;54.20;;;;;;5028233;28;20168;-65
2022/04/23 11:20:30;;;;;;;29.95;22.63;;;17.00;54.40;;;;;;5029186;28;20037;-64
2022/04/23 11:22:58;;;;;;;30.65;23.27;;;16.90;55.70;;;;;;5028215;28;20120;-65
2022/04/23 11:25:23;;;;;;;29.15;21.70;;;17.30;55.00;;;;;;5028014;28;20052;-65
2022/04/23 11:27:50;;;;;;;27.58;20.20;;;17.20;54.20;;;;;;5028754;28;20046;-65
2022/04/23 11:30:29;;;;;;;27.58;20.77;;;17.30;54.60;;;;;;5028259;28;20083;-64
2022/04/23 11:33:07;;;;;;;31.08;20.23;;;17.20;53.30;;;;;;5021657;28;20038;-68
2022/04/23 11:35:36;;;;;;;23.05;19.20;;;17.30;53.60;;;;;;5027377;28;20045;-65
2022/04/23 11:38:02;;;;;;;33.58;23.25;;;17.40;52.00;;;;;;5022242;28;20525;-64
2022/04/23 11:40:28;;;;;;;31.75;21.48;;;17.60;52.70;;;;;;5031079;28;20084;-65
2022/04/23 11:42:54;;;;;;;28.08;20.48;;;17.70;53.60;;;;;;5027339;28;20057;-64
2022/04/23 11:45:21;;;;;;;27.17;20.40;;;17.60;52.80;;;;;;5028848;28;20101;-65
2022/04/23 11:47:47;;;;;;;30.83;19.50;;;17.60;52.20;;;;;;5027658;28;20049;-65
2022/04/23 11:50:17;;;;;;;23.50;20.15;;;17.60;52.50;;;;;;5028667;28;20883;-65
2022/04/23 11:52:45;;;;;;;31.08;18.63;;;17.60;52.40;;;;;;5027067;28;20483;-65
2022/04/23 11:55:21;;;;;;;38.65;19.33;;;17.90;51.90;;;;;;5025978;28;20045;-65
2022/04/23 11:57:58;;;;;;;21.98;18.42;;;17.60;50.50;;;;;;5027819;28;20037;-64
2022/04/23 12:00:25;;;;;;;23.48;17.85;;;17.70;50.50;;;;;;5008922;28;20115;-65
2022/04/23 12:02:52;;;;;;;29.10;21.30;;;17.70;50.70;;;;;;5008374;28;20598;-65
2022/04/23 12:05:30;;;;;;;21.38;17.83;;;17.90;51.80;;;;;;5026290;28;20115;-65
2022/04/23 12:07:56;;;;;;;19.08;17.05;;;18.00;50.10;;;;;;5027200;28;20414;-64
2022/04/23 12:10:31;;;;;;;31.98;19.60;;;18.10;52.20;;;;;;5026662;28;20127;-65
2022/04/23 12:13:06;;;;;;;21.50;17.00;;;17.90;49.60;;;;;;5029642;28;20041;-65
2022/04/23 12:15:33;;;;;;;19.23;17.10;;;18.00;49.50;;;;;;5024524;28;20049;-65
2022/04/23 12:17:59;;;;;;;20.00;17.25;;;18.20;48.20;;;;;;5024350;28;20084;-65
2022/04/23 12:20:26;;;;;;;16.23;14.27;;;18.10;47.90;;;;;;5022969;28;20422;-65
2022/04/23 12:23:06;;;;;;;18.43;13.77;;;18.00;48.80;;;;;;5023895;28;20041;-65
2022/04/23 12:25:38;;;;;;;18.80;15.13;;;17.90;46.10;;;;;;5022504;28;20110;-65
2022/04/23 12:40:44;;;;;;;23.48;16.35;;;18.00;47.40;;;;;;5022758;28;20050;-65
2022/04/23 12:42:32;;;;;;;21.90;16.42;;;17.80;48.20;;;;;;5023203;28;20136;-65
2022/04/23 12:44:58;;;;;;;19.38;13.82;;;17.90;47.30;;;;;;5025351;28;20057;-65
2022/04/23 12:47:34;;;;;;;30.75;13.98;;;17.80;47.00;;;;;;5023581;28;20080;-65
2022/04/23 12:50:03;;;;;;;18.27;14.23;;;17.90;46.30;;;;;;5025748;28;20117;-65
2022/04/23 12:52:31;;;;;;;18.20;14.55;;;18.00;45.80;;;;;;5025234;28;20077;-65
2022/04/23 12:55:21;;;;;;;25.27;14.13;;;18.10;46.60;;;;;;5024153;28;20045;-67
2022/04/23 12:57:54;;;;;;;19.30;15.40;;;18.20;46.00;;;;;;5018736;28;20046;-65
2022/04/23 13:00:25;;;;;;;21.35;14.77;;;18.30;45.80;;;;;;5025435;28;20083;-66
2022/04/23 13:02:57;;;;;;;16.92;13.13;;;18.40;44.70;;;;;;5019170;28;20082;-65
2022/04/23 13:05:24;;;;;;;16.85;15.13;;;18.10;45.10;;;;;;5022176;28;20540;-66
2022/04/23 13:10:35;;;;;;;24.25;14.75;;;18.20;46.30;;;;;;5023232;28;20041;-65
2022/04/23 13:13:01;;;;;;;26.90;17.70;;;17.90;46.20;;;;;;5028157;28;20065;-66
2022/04/23 13:15:28;;;;;;;25.25;17.45;;;18.00;46.90;;;;;;5029186;28;20049;-65
2022/04/23 13:17:53;;;;;;;23.15;16.23;;;18.10;47.60;;;;;;5025959;28;20033;-65